x

Sentry Shoal (46131) Wave Buoy

11:00 - Wed 26th Nov 2014 All times are PST. -8 hours from GMT.

  • Sig Wave height 0.3ft
  • Peak Period 2s
  • Wind
    7mph, 9mph gusts
  • Sea Temp 49°f
  • Aire Temp 44°f
  • Sea Pressure 1017.2mb
  • Sentry Shoal
  • Sentry Shoal

More Historic Weather Station data

Upgrade to MSW Pro to gain access to the past 30 days of data for over 8000 Wavebouys and Weather Stations around the globe.

Join Pro

Comparision Forecast

View Surf forecast
   
mié 11/26 11:00 0.3ft 2s 7 9 mph 1017.2mb 49f 44f
10:00 0.7ft 2s 7 9 mph 1017.4mb 49f 44f
9:00 1ft 2s 9 11 mph 1017.6mb 49f 45f
8:00 0.7ft 2s 11 13 mph 1017.8mb 49f 44f
7:00 0.7ft 2s 11 13 mph 1017.6mb 49f 44f
6:00 0.7ft 2s 11 13 mph 1018.2mb 49f 44f
5:00 1ft 2s 11 13 mph 1018.8mb 49f 44f
4:00 0.7ft 2s 11 13 mph 1019.1mb 49f 44f
3:00 0.7ft 2s 9 13 mph 1019.8mb 49f 44f
2:00 0.3ft 2s 9 11 mph 1020.1mb 49f 43f
1:00 0.3ft 2s 7 9 mph 1020.8mb 49f 44f
12:00 0.7ft 2s 7 9 mph 1020.9mb 49f 43f
mar 11/25 11:00 0.7ft 2s 9
mph
1021.1mb 49f 43f
10:00 0.7ft 2s 11 13 mph 1021.2mb 49f 43f
9:00 0.7ft 2s 11 13 mph 1020.7mb 49f 43f
8:00 0.3ft 7s 11 13 mph 1021.1mb 49f 43f
7:00 0.3ft 7s 4 7 mph 1021.1mb 49f 44f
6:00 0.3ft 4s 2 4 mph 1021.6mb 49f 44f
5:00  -  7s  -  2 mph 1022.1mb 49f 44f
4:00  -  7s  -  2 mph 1022.3mb 49f 44f
3:00  -  7s  -  2 mph 1022.7mb 49f 44f
2:00 0.3ft 8s 2
mph
1023.2mb 49f 44f
1:00 0.3ft 8s 4 7 mph 1023.7mb 49f 44f
12:00  -  8s 4 7 mph 1024mb 49f 45f
11:00 0.3ft 7s 4 7 mph 1024.2mb 49f 45f
10:00 0.3ft 7s 4 7 mph 1024mb 49f 45f
9:00 0.3ft 3s 4 7 mph 1023.7mb 49f 45f
8:00 0.3ft 2s 4
mph
1023.1mb 49f 45f
7:00 0.3ft 2s 7 9 mph 1023.1mb 49f 45f
6:00 0.3ft 2s 7 9 mph 1022.5mb 49f 45f
5:00 0.7ft 2s 7 9 mph 1022mb 49f 45f
4:00 0.3ft 2s 9 11 mph 1022.5mb 49f 46f
3:00 0.3ft 3s 9 11 mph 1022.3mb 50f 45f
2:00 0.3ft 2s 7 9 mph 1021.8mb 50f 45f
1:00 0.3ft 2s 7 9 mph 1021.7mb 50f 45f
12:00 0.7ft 2s 4 7 mph 1021.3mb 50f 45f
lun 11/24 11:00 0.7ft 4s 9 11 mph 1020.7mb 49f 45f
10:00 1ft 5s 7 9 mph 1019.6mb 49f 45f
9:00 1ft 5s 4 7 mph 1019.2mb 49f 45f
8:00 1.6ft 5s 4
mph
1019mb 49f 45f
7:00  -   -  7
mph
1019.2mb - 45f
6:00 3.5ft 5s 9 11 mph 1018.9mb 49f 46f
5:00 4.5ft 5s 20 25 mph 1017.3mb 49f 47f
4:00 5ft 6s 22 27 mph 1017.6mb 49f 47f
3:00 4.5ft 6s 25 29 mph 1018.1mb 49f 47f
2:00 4.5ft 5s 22 27 mph 1018.8mb 49f 48f
1:00 4.5ft 5s 27 34 mph 1019.1mb 49f 48f
12:00 5ft 6s 29 36 mph 1019.7mb 49f 48f
11:00 5ft 5s 29 36 mph 1020.4mb 49f 48f
10:00 4.5ft 5s 31 36 mph 1020.9mb 49f 48f
9:00 4.5ft 6s 25 29 mph 1021.7mb 49f 48f
8:00 3.5ft 5s 22 27 mph 1022.3mb 49f 47f
7:00 3.5ft 4s 22 27 mph 1023.1mb 49f 47f
6:00 2.5ft 4s 22 27 mph 1023.3mb 49f 47f
5:00 1.6ft 3s 18 22 mph 1024.2mb 49f 47f
4:00 1.6ft 3s 18 22 mph 1024.7mb 49f 47f
3:00 1.3ft 3s 16 20 mph 1025.4mb 49f 47f
2:00 0.7ft 2s 13 18 mph 1026.3mb 49f 46f
1:00 0.7ft 2s 2 7 mph 1026.4mb 49f 45f
12:00 0.3ft 2s 9 11 mph 1026mb 49f 46f
dom 11/23 11:00 0.3ft 2s 2 7 mph 1025.7mb 49f 47f
10:00  -  8s 7
mph
1025.4mb 49f 45f
9:00  -  8s 2
mph
1024.2mb 49f 47f
8:00  -  8s 7
mph
1023.7mb 49f 47f
7:00  -  8s 2 4 mph 1023.2mb 49f 48f
6:00 0.3ft 8s 2 4 mph 1022.7mb 49f 48f
5:00  -  4s 2
mph
1021.6mb 49f 48f
4:00  -  6s 7
mph
1020.7mb 49f 48f
3:00 0.3ft 4s 2 4 mph 1020mb 49f 49f
2:00 0.3ft 4s 2 4 mph 1019.6mb 49f 48f
1:00 0.3ft 3s 2
mph
1018.8mb 50f 49f
12:00 0.3ft 3s 2 4 mph 1018.3mb 50f 48f
11:00 0.3ft 3s 2 4 mph 1017.4mb 49f 48f
10:00 0.7ft 3s 4
mph
1016.4mb 49f 47f
9:00 1ft 4s 7 9 mph 1015.1mb 49f 45f
8:00 1.6ft 4s 2 4 mph 1013.9mb 49f 45f
7:00 2.5ft 5s 4 7 mph 1013.3mb 49f 45f
6:00 3.5ft 4s 11 13 mph 1012.3mb 49f 46f
5:00 4.5ft 5s 20 25 mph 1012.4mb 49f 47f
4:00 4.5ft 5s 20 25 mph 1011.9mb 49f 47f
3:00 5ft 5s 27 31 mph 1011.5mb 49f 48f
2:00 4ft 4s 29 36 mph 1012.1mb 49f 49f
1:00 3ft 4s 27 34 mph 1013.3mb 49f 49f
12:00 2.5ft 3s 13 18 mph 1014.4mb 49f 48f
sáb 11/22 11:00 1.6ft 3s 20 22 mph 1014.5mb 49f 49f
10:00 1.3ft 2s 16 20 mph 1014.9mb 49f 49f
9:00 0.3ft 2s 11 13 mph 1015mb 49f 48f